Time;durP1;ratioP1;P1;durP2;ratioP2;P2;SDS_P1;SDS_P2;PMS_P1;PMS_P2;Temp;Humidity;BMP_temperature;BMP_pressure;BME280_temperature;BME280_humidity;BME280_pressure;Samples;Min_cycle;Max_cycle;Signal;HPM_P1;HPM_P2
2023/01/08 00:01:34;;;;;;;3.60;3.25;;;9.10;83.20;;;8.80;67.24;99962.53;5006432;28;20415;-68
2023/01/08 00:04:03;;;;;;;4.38;3.30;;;9.30;82.60;;;8.71;68.18;99957.81;5015892;28;20414;-68
2023/01/08 00:06:32;;;;;;;3.20;2.90;;;9.10;83.40;;;8.78;67.50;99957.34;5025525;28;20411;-68
2023/01/08 00:09:03;;;;;;;3.38;3.08;;;9.20;83.10;;;8.73;67.97;99953.28;5027908;28;20999;-69
2023/01/08 00:11:31;;;;;;;4.85;3.17;;;9.10;83.40;;;8.65;69.01;99969.56;5028148;28;20788;-69
2023/01/08 00:13:59;;;;;;;4.55;3.60;;;9.10;84.40;;;8.58;69.54;99962.09;5026331;28;20903;-69
2023/01/08 00:16:27;;;;;;;5.07;3.50;;;9.00;84.90;;;8.54;69.58;99964.06;5027899;28;20776;-69
2023/01/08 00:18:55;;;;;;;4.57;3.53;;;8.90;85.10;;;8.58;68.86;99967.38;5027893;28;20414;-69
2023/01/08 00:21:25;;;;;;;3.75;3.30;;;8.90;84.90;;;8.50;69.35;99960.75;5023556;28;20418;-69
2023/01/08 00:23:53;;;;;;;4.05;3.47;;;8.90;85.30;;;8.45;69.85;99957.53;5028053;28;20810;-70
2023/01/08 00:26:21;;;;;;;3.72;3.42;;;8.90;85.80;;;8.42;70.07;99955.06;5020693;28;20419;-69
2023/01/08 00:28:51;;;;;;;3.70;3.40;;;8.90;85.90;;;8.42;70.06;99957.72;5019080;28;20407;-68
2023/01/08 00:31:19;;;;;;;3.72;3.33;;;8.80;86.10;;;8.42;70.17;99956.88;5028125;28;20410;-69
2023/01/08 00:33:47;;;;;;;3.58;3.28;;;8.90;85.90;;;8.40;70.00;99938.53;5022850;28;20407;-68
2023/01/08 00:36:18;;;;;;;5.00;3.42;;;8.80;85.90;;;8.39;69.88;99926.28;5017009;28;20549;-71
2023/01/08 00:38:48;;;;;;;4.35;3.47;;;8.80;85.90;;;8.37;70.35;99935.22;5014472;28;21379;-70
2023/01/08 00:41:17;;;;;;;4.00;3.60;;;8.80;86.00;;;8.37;70.08;99932.59;5015162;28;20407;-70
2023/01/08 00:43:45;;;;;;;4.33;3.60;;;8.80;86.10;;;8.39;70.04;99938.59;5015637;28;20798;-70
2023/01/08 00:46:13;;;;;;;4.07;3.78;;;8.80;85.90;;;8.39;69.75;99925.44;5019543;28;20415;-69
2023/01/08 00:48:41;;;;;;;4.10;3.70;;;8.80;85.70;;;8.36;70.18;99926.47;5021483;28;20411;-68
2023/01/08 00:51:09;;;;;;;4.13;3.50;;;8.80;85.90;;;8.49;68.97;99932.72;5021724;28;20775;-68
2023/01/08 00:53:38;;;;;;;3.97;3.50;;;8.80;85.30;;;8.70;68.11;99937.66;5021733;28;20422;-68
2023/01/08 00:56:10;;;;;;;3.90;3.47;;;9.00;84.00;;;8.66;68.32;99913.28;5021131;28;21085;-69
2023/01/08 00:58:38;;;;;;;4.20;3.60;;;9.00;83.90;;;8.65;68.50;99913.38;5021404;28;20427;-70
2023/01/08 01:01:11;;;;;;;4.10;3.70;;;9.00;84.20;;;8.61;68.46;99917.13;5018383;28;20414;-69
2023/01/08 01:03:39;;;;;;;3.90;3.50;;;9.00;84.40;;;8.62;68.71;99903.03;5009169;28;20423;-70
2023/01/08 01:06:09;;;;;;;3.70;3.30;;;9.00;84.20;;;8.53;69.18;99902.63;5018564;28;20406;-70
2023/01/08 01:08:37;;;;;;;4.50;3.92;;;8.90;84.70;;;8.61;68.89;99914.50;5018824;28;20481;-70
2023/01/08 01:11:08;;;;;;;4.00;3.60;;;9.00;84.40;;;8.72;68.01;99902.38;5018943;28;20415;-70
2023/01/08 01:13:36;;;;;;;3.97;3.58;;;9.10;84.00;;;8.82;67.94;99913.22;5021307;28;20411;-69
2023/01/08 01:16:05;;;;;;;5.25;3.60;;;9.20;83.50;;;8.92;67.34;99917.03;5025061;28;20415;-69
2023/01/08 01:18:33;;;;;;;4.07;3.67;;;9.30;83.00;;;8.87;67.40;99905.91;5024400;28;20946;-69
2023/01/08 01:21:01;;;;;;;4.25;3.85;;;9.30;82.80;;;8.79;68.16;99900.22;5024909;28;20409;-68
2023/01/08 01:23:29;;;;;;;4.10;3.70;;;9.20;83.20;;;8.69;68.79;99897.31;5025035;28;20410;-68
2023/01/08 01:25:57;;;;;;;4.10;3.60;;;9.10;84.00;;;8.72;68.35;99896.28;5024028;28;20866;-70
2023/01/08 01:28:27;;;;;;;4.65;3.78;;;9.10;84.00;;;8.65;68.84;99897.56;5024233;28;20399;-69
2023/01/08 01:30:56;;;;;;;4.15;3.72;;;9.00;84.30;;;8.70;68.41;99890.25;5018092;28;20422;-70
2023/01/08 01:33:25;;;;;;;5.05;3.85;;;9.10;84.20;;;8.69;68.41;99892.03;5018031;28;20963;-70
2023/01/08 01:36:01;;;;;;;4.30;3.90;;;9.10;84.00;;;8.72;68.28;99896.28;5017141;28;20403;-70
2023/01/08 01:38:30;;;;;;;4.20;3.80;;;9.10;84.00;;;8.73;68.25;99897.97;5017827;28;20423;-70
2023/01/08 01:40:58;;;;;;;4.30;3.88;;;9.10;83.90;;;8.69;68.50;99897.31;5019057;28;20411;-70
2023/01/08 01:43:40;;;;;;;4.20;3.70;;;9.10;84.10;;;8.71;68.53;99907.75;5023643;28;20799;-69
2023/01/08 01:46:23;;;;;;;4.20;3.80;;;9.10;84.10;;;8.63;69.37;99894.19;5023908;28;20403;-70
2023/01/08 01:48:57;;;;;;;4.30;3.90;;;9.10;84.80;;;8.61;69.54;99898.69;5024246;28;20411;-70
2023/01/08 01:51:33;;;;;;;4.95;4.10;;;9.00;84.80;;;8.63;69.23;99899.44;5024370;28;20787;-70
2023/01/08 01:54:05;;;;;;;5.35;3.90;;;9.00;85.00;;;8.84;68.13;99906.06;5022278;28;20403;-68
2023/01/08 01:56:34;;;;;;;4.25;3.88;;;9.20;84.00;;;8.74;69.13;99911.03;5023992;28;20403;-70
2023/01/08 01:59:04;;;;;;;4.45;3.90;;;9.10;84.60;;;8.69;69.46;99918.38;5017814;28;20431;-69
2023/01/08 02:01:34;;;;;;;4.20;3.80;;;9.10;84.70;;;8.65;69.68;99930.03;5017894;28;20415;-69
2023/01/08 02:04:02;;;;;;;4.32;3.85;;;9.10;85.20;;;8.72;68.85;99930.53;5017062;28;20414;-68
2023/01/08 02:06:38;;;;;;;4.13;3.72;;;9.10;84.90;;;8.78;68.93;99920.47;5014892;28;21189;-68
2023/01/08 02:09:22;;;;;;;4.20;3.80;;;9.10;84.80;;;8.85;68.65;99905.16;5019114;28;20407;-70
2023/01/08 02:12:22;;;;;;;4.03;3.70;;;9.20;84.20;;;9.01;67.64;99910.38;5023682;28;20952;-68
2023/01/08 02:15:05;;;;;;;4.10;3.80;;;9.30;83.80;;;8.98;67.90;99902.63;5023645;28;20402;-69
2023/01/08 02:17:44;;;;;;;5.10;4.10;;;9.30;83.30;;;8.93;68.22;99895.00;5018144;28;20418;-70
2023/01/08 02:20:19;;;;;;;4.45;4.00;;;9.30;83.60;;;8.86;68.65;99883.16;5023948;28;20434;-69
2023/01/08 02:23:08;;;;;;;4.28;3.90;;;9.30;84.00;;;8.90;68.18;99881.19;5023686;28;20406;-70
2023/01/08 02:26:06;;;;;;;4.80;4.28;;;9.30;83.70;;;8.79;69.05;99879.16;5016468;28;20492;-70
2023/01/08 02:28:41;;;;;;;4.50;4.00;;;9.20;84.50;;;8.73;69.32;99879.53;5001692;28;20411;-70
2023/01/08 02:31:11;;;;;;;4.30;3.90;;;9.20;84.90;;;8.72;69.44;99875.19;5017093;28;20407;-70
2023/01/08 02:33:40;;;;;;;5.05;4.15;;;9.20;84.90;;;8.67;69.84;99870.19;5016873;28;20441;-69
2023/01/08 02:36:28;;;;;;;4.63;4.10;;;9.10;85.40;;;8.62;69.89;99874.06;5017385;28;20403;-70
2023/01/08 02:39:33;;;;;;;4.40;4.00;;;9.00;85.60;;;8.73;69.52;99876.88;5021011;28;20427;-69
2023/01/08 02:42:20;;;;;;;5.00;4.50;;;9.10;85.00;;;8.77;69.42;99873.13;5023519;28;20413;-70
2023/01/08 02:44:59;;;;;;;4.43;3.95;;;9.20;84.90;;;8.83;69.24;99873.59;5011198;28;20422;-69
2023/01/08 02:47:33;;;;;;;4.53;4.13;;;9.20;84.70;;;8.79;69.94;99871.25;5022018;28;20415;-68
2023/01/08 02:50:19;;;;;;;4.50;4.10;;;9.20;85.20;;;8.83;69.09;99867.50;5023430;28;20395;-70
2023/01/08 02:53:02;;;;;;;4.40;4.00;;;9.20;84.90;;;8.87;69.15;99874.31;5008052;28;20414;-69
2023/01/08 02:55:35;;;;;;;4.63;3.88;;;9.20;84.80;;;8.90;69.21;99879.38;5016329;28;20410;-68
2023/01/08 02:58:06;;;;;;;4.65;4.00;;;9.30;84.80;;;8.96;68.78;99873.75;5012967;28;20418;-70
2023/01/08 03:00:35;;;;;;;4.10;3.80;;;9.30;84.40;;;8.95;69.15;99865.94;5015666;28;20411;-70
2023/01/08 03:03:11;;;;;;;6.10;3.80;;;9.40;84.70;;;8.92;69.21;99866.13;5016299;28;20395;-69
2023/01/08 03:05:45;;;;;;;4.57;3.75;;;9.30;84.80;;;9.06;68.45;99863.47;5017827;28;20399;-68
2023/01/08 03:08:14;;;;;;;4.20;3.80;;;9.50;84.20;;;9.03;68.60;99867.16;5022301;28;20403;-68
2023/01/08 03:10:48;;;;;;;4.07;3.67;;;9.40;84.30;;;9.05;68.80;99870.53;5023239;28;20406;-69
2023/01/08 03:13:26;;;;;;;4.47;3.75;;;9.40;84.20;;;9.04;68.89;99881.19;5023105;28;20419;-69
2023/01/08 03:16:00;;;;;;;4.22;3.72;;;9.40;84.40;;;9.10;68.38;99880.81;5021172;28;20403;-69
2023/01/08 03:18:36;;;;;;;4.20;3.80;;;9.50;84.20;;;9.07;68.88;99883.63;5022587;28;20434;-70
2023/01/08 03:21:07;;;;;;;4.78;3.58;;;9.50;84.50;;;9.11;68.54;99867.53;5021042;28;20417;-70
2023/01/08 03:23:38;;;;;;;4.30;3.90;;;9.50;84.20;;;9.11;68.85;99879.84;5016038;28;21398;-73
2023/01/08 03:26:07;;;;;;;4.20;3.80;;;9.50;84.20;;;9.11;68.67;99874.59;5016908;28;20407;-70
2023/01/08 03:28:44;;;;;;;4.13;3.72;;;9.50;84.30;;;9.20;68.34;99881.09;5006927;28;21358;-69
2023/01/08 03:31:16;;;;;;;4.55;3.70;;;9.60;84.00;;;9.16;68.79;99869.88;5015878;28;21242;-68
2023/01/08 03:33:46;;;;;;;4.20;3.80;;;9.50;84.00;;;9.20;68.57;99875.81;5017346;28;20414;-69
2023/01/08 03:36:18;;;;;;;4.55;4.15;;;9.60;84.10;;;9.20;68.46;99871.38;5021709;28;20414;-69
2023/01/08 03:38:56;;;;;;;4.35;3.95;;;9.60;84.10;;;9.24;68.27;99857.06;5022238;28;20445;-70
2023/01/08 03:41:29;;;;;;;4.50;3.88;;;9.60;84.00;;;9.13;69.42;99849.81;5022226;28;21190;-70
2023/01/08 03:43:58;;;;;;;4.57;4.18;;;9.50;84.70;;;9.30;68.03;99845.28;5022631;28;20410;-69
2023/01/08 03:46:33;;;;;;;5.80;4.28;;;9.60;84.90;;;9.30;68.34;99850.56;5022138;28;20565;-68
2023/01/08 03:49:05;;;;;;;6.53;4.50;;;9.70;83.70;;;9.25;68.91;99853.50;5022324;28;20442;-70
2023/01/08 03:51:40;;;;;;;5.68;4.35;;;9.60;84.10;;;9.22;69.07;99845.75;5016210;28;20490;-70
2023/01/08 03:54:13;;;;;;;4.88;4.38;;;9.60;84.20;;;9.22;68.82;99850.19;5016302;28;20406;-69
2023/01/08 03:56:41;;;;;;;4.70;3.97;;;9.60;84.40;;;9.26;68.71;99849.06;5014955;28;20410;-70
2023/01/08 03:59:15;;;;;;;4.63;4.20;;;9.60;84.20;;;9.33;68.00;99845.09;5015186;28;20434;-70
2023/01/08 04:01:43;;;;;;;5.00;3.90;;;9.70;83.80;;;9.35;68.01;99837.94;5013954;28;20407;-69
2023/01/08 04:04:12;;;;;;;4.13;3.72;;;9.70;83.60;;;9.31;68.23;99826.72;5020819;28;20402;-68
2023/01/08 04:06:40;;;;;;;4.30;3.88;;;9.70;83.60;;;9.20;68.70;99820.44;5021599;28;20827;-68
2023/01/08 04:09:09;;;;;;;4.57;4.18;;;9.60;84.10;;;9.12;69.56;99826.19;5021835;28;20411;-69
2023/01/08 04:11:37;;;;;;;4.47;4.07;;;9.50;84.80;;;9.07;69.36;99823.84;5022071;28;20410;-68
2023/01/08 04:14:05;;;;;;;4.65;4.15;;;9.50;84.90;;;9.02;69.76;99820.66;5022087;28;20411;-69
2023/01/08 04:16:34;;;;;;;4.50;4.10;;;9.50;85.20;;;8.97;70.36;99820.09;5021955;28;20753;-70
2023/01/08 04:19:02;;;;;;;4.75;4.22;;;9.40;85.70;;;8.90;70.61;99821.41;5018236;28;20426;-69
2023/01/08 04:21:30;;;;;;;4.47;4.07;;;9.30;86.10;;;8.87;70.72;99833.94;5015003;28;20414;-70
2023/01/08 04:23:59;;;;;;;4.40;3.93;;;9.30;86.40;;;8.82;70.88;99829.75;5014752;28;20964;-71
2023/01/08 04:26:27;;;;;;;4.68;4.28;;;9.20;86.70;;;8.79;71.08;99823.81;5014880;28;20399;-71
2023/01/08 04:28:55;;;;;;;4.55;4.15;;;9.20;87.10;;;8.75;71.53;99817.91;5016300;28;20414;-68
2023/01/08 04:31:23;;;;;;;5.05;4.55;;;9.20;88.40;;;8.73;71.61;99818.94;5017969;28;20414;-70
2023/01/08 04:33:53;;;;;;;5.18;4.40;;;9.10;87.40;;;8.70;71.53;99819.97;5021988;28;20407;-68
2023/01/08 04:36:21;;;;;;;4.95;4.47;;;9.10;87.70;;;8.70;72.11;99813.84;5022144;28;20493;-68
2023/01/08 04:38:49;;;;;;;4.75;4.13;;;9.10;88.00;;;8.68;71.91;99810.47;5022517;28;20783;-68
2023/01/08 04:41:17;;;;;;;4.65;4.25;;;9.10;88.00;;;8.64;71.87;99808.94;5025913;28;20407;-68
2023/01/08 04:43:45;;;;;;;4.40;4.00;;;9.00;88.00;;;8.63;72.06;99804.63;5025581;28;20441;-68
2023/01/08 04:46:13;;;;;;;4.80;4.40;;;9.00;88.10;;;8.63;72.46;99802.00;5024590;28;20406;-69
2023/01/08 04:48:42;;;;;;;4.35;3.92;;;9.00;88.50;;;8.62;72.52;99802.94;5018266;28;20588;-69
2023/01/08 04:51:11;;;;;;;4.70;4.25;;;9.00;88.50;;;8.57;72.42;99792.66;5017862;28;20409;-69
2023/01/08 04:53:40;;;;;;;4.95;4.13;;;9.00;88.60;;;8.57;72.69;99786.56;5016787;28;21205;-69
2023/01/08 04:56:11;;;;;;;4.95;4.45;;;9.00;88.80;;;8.57;72.51;99791.81;5020078;28;20444;-70
2023/01/08 04:58:40;;;;;;;4.75;4.28;;;8.90;88.70;;;8.56;72.39;99793.59;5020142;28;20406;-70
2023/01/08 05:01:13;;;;;;;4.80;4.10;;;9.00;88.70;;;8.50;72.82;99786.94;5025029;28;20442;-69
2023/01/08 05:03:42;;;;;;;4.80;4.40;;;8.90;88.90;;;8.52;72.52;99785.03;5025388;28;20406;-69
2023/01/08 05:06:11;;;;;;;5.80;4.53;;;8.90;88.90;;;8.50;72.68;99786.94;5024781;28;20407;-69
2023/01/08 05:08:39;;;;;;;4.90;4.50;;;8.90;88.90;;;8.50;72.64;99788.72;5025060;28;20449;-70
2023/01/08 05:11:07;;;;;;;4.68;4.28;;;8.90;88.80;;;8.49;72.99;99782.59;5025178;28;20403;-70
2023/01/08 05:13:35;;;;;;;5.30;4.80;;;8.90;89.00;;;8.48;73.03;99791.44;5024760;28;20885;-70
2023/01/08 05:16:04;;;;;;;4.90;4.32;;;8.90;89.30;;;8.51;73.34;99786.00;5019804;28;20406;-69
2023/01/08 05:18:33;;;;;;;5.82;4.65;;;8.90;89.60;;;8.50;73.75;99797.47;5018698;28;20419;-69
2023/01/08 05:21:02;;;;;;;6.15;4.65;;;8.90;90.00;;;8.45;74.35;99794.25;5017775;28;20425;-70
2023/01/08 05:23:33;;;;;;;5.40;4.90;;;8.80;90.20;;;8.41;74.74;99784.84;5018100;28;20412;-70
2023/01/08 05:26:04;;;;;;;5.45;4.47;;;8.80;90.50;;;8.39;74.89;99786.72;5018860;28;20783;-70
2023/01/08 05:28:33;;;;;;;5.43;4.93;;;8.80;90.60;;;8.36;75.12;99786.91;5022569;28;20500;-69
2023/01/08 05:31:01;;;;;;;5.67;5.10;;;8.80;90.80;;;8.32;75.39;99779.22;5024542;28;20402;-70
2023/01/08 05:33:29;;;;;;;5.35;4.85;;;8.70;91.00;;;8.33;75.38;99784.47;5024293;28;20498;-69
2023/01/08 05:35:57;;;;;;;5.47;5.03;;;8.70;91.00;;;8.32;75.50;99785.34;5023412;28;20418;-68
2023/01/08 05:38:25;;;;;;;5.78;5.28;;;8.70;91.10;;;8.33;75.60;99783.59;5023019;28;20422;-69
2023/01/08 05:40:54;;;;;;;6.10;5.50;;;8.70;91.10;;;8.29;76.08;99777.63;5023315;28;20911;-68
2023/01/08 05:43:23;;;;;;;6.18;5.43;;;8.70;91.30;;;8.29;76.03;99777.63;5020764;28;20411;-69
2023/01/08 05:45:51;;;;;;;5.90;5.30;;;8.70;91.50;;;8.28;76.30;99770.66;5017188;28;20407;-70
2023/01/08 05:48:19;;;;;;;5.97;5.38;;;8.70;91.60;;;8.28;76.79;99775.94;5016641;28;20419;-70
2023/01/08 05:50:50;;;;;;;6.10;5.40;;;8.70;91.70;;;8.31;76.66;99769.63;5015567;28;20800;-70
2023/01/08 05:53:18;;;;;;;5.30;4.85;;;8.70;91.60;;;8.32;76.48;99777.44;5016773;28;20818;-70
2023/01/08 05:55:46;;;;;;;5.65;5.13;;;8.70;91.60;;;8.35;76.28;99772.06;5019051;28;20407;-68
2023/01/08 05:58:17;;;;;;;5.60;5.10;;;8.70;91.60;;;8.36;76.57;99771.13;5022657;28;20899;-69
2023/01/08 06:00:46;;;;;;;5.47;5.00;;;8.70;91.70;;;8.33;76.93;99776.56;5022768;28;20429;-69
2023/01/08 06:03:14;;;;;;;5.60;5.10;;;8.70;91.90;;;8.32;76.74;99771.31;5022831;28;20426;-69
2023/01/08 06:05:42;;;;;;;5.72;5.22;;;8.70;91.90;;;8.30;77.44;99770.56;5021519;28;20407;-68
2023/01/08 06:08:10;;;;;;;6.00;5.40;;;8.70;92.10;;;8.29;77.05;99775.00;5021818;28;20774;-69
2023/01/08 06:10:39;;;;;;;6.07;5.47;;;8.70;92.10;;;8.28;77.65;99764.56;5022016;28;20426;-68
2023/01/08 06:13:08;;;;;;;6.20;5.35;;;8.70;92.20;;;8.28;77.83;99775.94;5015773;28;20402;-70
2023/01/08 06:15:38;;;;;;;6.00;5.40;;;8.70;92.30;;;8.30;77.52;99766.16;5015415;28;20410;-69
2023/01/08 06:18:07;;;;;;;6.10;5.50;;;8.70;92.30;;;8.29;77.56;99760.97;5015158;28;20414;-69
2023/01/08 06:20:35;;;;;;;6.40;5.50;;;8.70;92.40;;;8.35;77.59;99755.41;5014347;28;21601;-69
2023/01/08 06:23:03;;;;;;;6.30;5.65;;;8.70;92.30;;;8.32;77.60;99753.75;5016235;28;20469;-69
2023/01/08 06:25:32;;;;;;;6.63;6.03;;;8.70;92.40;;;8.31;77.96;99753.84;5020555;28;20411;-70
2023/01/08 06:28:00;;;;;;;7.07;6.38;;;8.70;92.50;;;8.35;77.73;99756.25;5010016;28;20481;-69
2023/01/08 06:30:28;;;;;;;7.00;6.30;;;8.70;92.40;;;8.33;77.48;99755.50;5028214;28;20418;-69
2023/01/08 06:33:00;;;;;;;7.10;6.20;;;8.70;92.30;;;8.31;77.97;99749.41;5028947;28;20399;-69
2023/01/08 06:35:30;;;;;;;6.40;5.80;;;8.70;92.50;;;8.31;77.67;99753.84;5029774;28;20556;-69
2023/01/08 06:37:58;;;;;;;6.32;5.72;;;8.70;92.40;;;8.30;77.97;99753.00;5029297;28;20403;-69
2023/01/08 06:40:26;;;;;;;6.78;6.07;;;8.70;92.90;;;8.30;78.16;99745.09;5029691;28;20426;-69
2023/01/08 06:42:54;;;;;;;6.82;6.22;;;8.70;92.50;;;8.30;78.04;99750.34;5028607;28;20407;-70
2023/01/08 06:45:22;;;;;;;6.25;5.65;;;8.70;92.60;;;8.27;78.04;99750.53;5029894;28;20399;-69
2023/01/08 06:47:50;;;;;;;6.75;6.07;;;8.70;92.70;;;8.24;78.36;99748.94;5028956;28;20415;-68
2023/01/08 06:50:20;;;;;;;6.80;6.10;;;8.70;92.80;;;8.24;78.66;99748.09;5029409;28;20419;-69
2023/01/08 06:52:53;;;;;;;7.60;6.87;;;8.70;92.80;;;8.21;78.53;99749.13;5029272;28;20407;-70
2023/01/08 06:55:22;;;;;;;7.53;6.43;;;8.60;92.90;;;8.26;78.18;99748.84;5027973;28;20423;-69
2023/01/08 06:57:54;;;;;;;6.97;6.27;;;8.70;92.80;;;8.27;78.34;99747.91;5029166;28;20403;-70
2023/01/08 07:00:24;;;;;;;6.95;6.25;;;8.70;92.80;;;8.26;78.35;99753.25;5028845;28;20938;-69
2023/01/08 07:02:55;;;;;;;7.75;6.82;;;8.70;92.90;;;8.22;78.95;99752.59;5029084;28;21010;-69
2023/01/08 07:05:26;;;;;;;7.32;6.63;;;8.60;93.10;;;8.21;79.45;99753.53;5029079;28;20414;-68
2023/01/08 07:07:54;;;;;;;8.40;7.20;;;8.60;93.20;;;8.18;79.19;99753.72;5027815;28;20414;-70
2023/01/08 07:10:22;;;;;;;8.88;7.03;;;8.60;93.30;;;8.20;79.16;99754.47;5028461;28;20418;-71
2023/01/08 07:12:50;;;;;;;7.90;7.10;;;8.60;93.30;;;8.19;79.04;99750.16;5028940;28;20407;-69
2023/01/08 07:15:19;;;;;;;7.53;6.82;;;8.60;93.30;;;8.23;79.11;99762.19;5028743;28;21188;-70
2023/01/08 07:17:47;;;;;;;8.35;6.75;;;8.60;93.40;;;8.25;79.08;99755.06;5028319;28;21076;-70
2023/01/08 07:20:15;;;;;;;7.50;6.70;;;8.60;93.40;;;8.25;79.36;99752.41;5028677;28;20407;-70
2023/01/08 07:22:44;;;;;;;7.40;6.70;;;8.60;93.50;;;8.22;79.74;99757.88;5028738;28;20471;-68
2023/01/08 07:25:12;;;;;;;7.85;7.03;;;8.60;93.50;;;8.27;79.50;99757.59;5028614;28;20410;-70
2023/01/08 07:27:40;;;;;;;7.82;7.13;;;8.60;93.60;;;8.31;79.38;99752.06;5028647;28;20407;-68
2023/01/08 07:30:10;;;;;;;7.97;7.28;;;8.60;93.60;;;8.27;79.78;99761.06;5028794;28;20419;-69
2023/01/08 07:32:59;;;;;;;9.43;7.55;;;8.60;93.60;;;8.25;80.10;99760.31;5028910;28;20410;-69
2023/01/08 07:35:28;;;;;;;7.90;7.13;;;8.60;93.90;;;8.27;79.89;99763.72;5029040;28;20449;-69
2023/01/08 07:37:57;;;;;;;7.88;7.18;;;8.60;93.80;;;8.25;80.13;99762.94;5028112;28;20413;-69
2023/01/08 07:40:25;;;;;;;8.95;8.05;;;8.60;93.90;;;8.31;80.12;99769.63;5028862;28;20410;-69
2023/01/08 07:43:01;;;;;;;8.10;7.30;;;8.60;94.00;;;8.32;80.08;99769.53;5028515;28;20409;-70
2023/01/08 07:45:30;;;;;;;8.43;7.57;;;8.70;94.00;;;8.33;80.34;99766.03;5028860;28;20406;-68
2023/01/08 07:47:59;;;;;;;8.35;7.57;;;8.70;94.00;;;8.36;80.38;99773.75;5028659;28;20411;-69
2023/01/08 07:50:28;;;;;;;8.68;7.75;;;8.70;94.00;;;8.31;80.18;99769.63;5028502;28;20912;-69
2023/01/08 07:52:59;;;;;;;9.82;8.85;;;8.70;94.00;;;8.30;80.93;99773.19;5028616;28;20882;-70
2023/01/08 07:55:30;;;;;;;9.25;8.35;;;8.70;94.20;;;8.27;80.82;99782.13;5028641;28;20407;-69
2023/01/08 07:57:58;;;;;;;8.40;7.60;;;8.60;94.30;;;8.30;81.13;99778.47;5028421;28;21070;-70
2023/01/08 08:00:27;;;;;;;8.55;7.70;;;8.70;94.40;;;8.28;81.35;99775.94;5028404;28;20407;-69
2023/01/08 08:02:55;;;;;;;9.10;8.20;;;8.60;94.50;;;8.22;81.74;99771.03;5028328;28;20418;-69
2023/01/08 08:05:23;;;;;;;8.60;7.70;;;8.60;94.70;;;8.29;81.58;99776.78;5028250;28;20446;-70
2023/01/08 08:07:51;;;;;;;8.40;7.60;;;8.60;94.70;;;8.27;81.52;99766.34;5027355;28;20422;-69
2023/01/08 08:10:21;;;;;;;8.20;7.40;;;8.70;94.80;;;8.30;81.45;99768.78;5035277;28;20894;-69
2023/01/08 08:12:49;;;;;;;8.13;7.33;;;8.70;94.70;;;8.33;81.18;99767.78;5047284;28;20398;-69
2023/01/08 08:15:17;;;;;;;8.50;7.80;;;8.70;94.70;;;8.30;81.60;99771.41;5047494;28;20416;-69
2023/01/08 08:17:46;;;;;;;8.73;7.93;;;8.70;94.80;;;8.29;81.73;99767.09;5047423;28;20766;-69
2023/01/08 08:20:16;;;;;;;9.13;8.32;;;8.70;94.80;;;8.29;81.73;99772.34;5037794;28;20406;-69
2023/01/08 08:22:44;;;;;;;8.70;7.90;;;8.70;94.90;;;8.33;81.69;99768.66;5026101;28;20437;-69
2023/01/08 08:25:13;;;;;;;10.67;9.67;;;8.70;94.90;;;8.30;81.91;99766.16;5027499;28;20418;-69
2023/01/08 08:27:44;;;;;;;10.03;9.03;;;8.70;95.00;;;8.37;81.97;99761.44;5027343;28;20421;-69
2023/01/08 08:30:14;;;;;;;11.20;10.10;;;8.70;94.90;;;8.36;81.98;99763.22;5027935;28;20438;-69
2023/01/08 08:32:42;;;;;;;10.88;9.77;;;8.80;95.00;;;8.33;82.21;99763.41;5027826;28;20407;-69
2023/01/08 08:35:11;;;;;;;10.18;9.20;;;8.70;95.00;;;8.31;82.22;99749.41;5028017;28;20500;-70
2023/01/08 08:37:39;;;;;;;10.48;9.48;;;8.70;95.10;;;8.31;82.19;99753.84;5027400;28;20407;-70
2023/01/08 08:40:09;;;;;;;8.70;7.90;;;8.70;95.20;;;8.32;82.09;99753.75;5027388;28;20826;-69
2023/01/08 08:42:37;;;;;;;8.40;7.63;;;8.70;95.10;;;8.31;81.97;99748.56;5027771;28;20423;-69
2023/01/08 08:45:08;;;;;;;8.65;7.85;;;8.70;95.00;;;8.35;81.85;99745.72;5027773;28;20407;-69
2023/01/08 08:47:36;;;;;;;7.93;7.30;;;8.70;95.10;;;8.33;81.83;99741.47;5027382;28;20800;-69
2023/01/08 08:50:06;;;;;;;8.00;7.30;;;8.70;95.00;;;8.34;82.17;99744.03;5027383;28;20410;-69
2023/01/08 08:52:36;;;;;;;8.65;7.82;;;8.70;95.10;;;8.39;82.00;99741.13;5027277;28;20409;-69
2023/01/08 08:55:05;;;;;;;7.60;6.90;;;8.70;95.10;;;8.35;82.08;99736.97;5027324;28;20937;-70
2023/01/08 08:57:33;;;;;;;8.00;7.30;;;8.80;95.10;;;8.42;82.04;99731.25;5027069;28;20795;-70
2023/01/08 09:00:01;;;;;;;7.35;6.65;;;8.70;95.10;;;8.48;81.85;99727.38;5027706;28;20407;-69
2023/01/08 09:02:31;;;;;;;7.90;7.20;;;8.80;95.10;;;8.45;82.00;99728.41;5027314;28;20431;-68
2023/01/08 09:04:59;;;;;;;7.43;6.72;;;8.80;95.10;;;8.43;82.21;99725.03;5027713;28;20438;-68
2023/01/08 09:07:27;;;;;;;7.78;7.07;;;8.80;95.10;;;8.42;82.04;99717.22;5026978;28;20407;-68
2023/01/08 09:09:58;;;;;;;7.78;7.07;;;8.80;95.20;;;8.42;82.25;99715.44;5027855;28;20403;-69
2023/01/08 09:12:26;;;;;;;6.45;5.85;;;8.80;95.20;;;8.51;81.90;99714.88;5028032;28;20461;-69
2023/01/08 09:14:55;;;;;;;8.70;7.88;;;8.80;95.10;;;8.52;81.79;99711.31;5027603;28;20810;-70
2023/01/08 09:17:25;;;;;;;7.20;6.60;;;8.90;95.10;;;8.51;82.02;99708.75;5027512;28;20422;-69
2023/01/08 09:19:54;;;;;;;13.88;12.50;;;8.80;95.10;;;8.52;82.28;99731.53;5027575;28;20410;-72
2023/01/08 09:22:22;;;;;;;13.52;12.20;;;8.90;95.10;;;8.59;81.76;99721.47;5017421;28;20443;-69
2023/01/08 09:24:51;;;;;;;13.30;12.00;;;8.90;94.90;;;8.66;81.59;99720.13;5026881;28;20424;-69
2023/01/08 09:27:19;;;;;;;11.00;10.00;;;9.00;94.90;;;8.64;81.58;99719.38;5030960;28;20415;-69
2023/01/08 09:29:47;;;;;;;11.48;10.48;;;9.00;94.70;;;8.67;81.27;99703.38;5030177;28;20457;-70
2023/01/08 09:32:15;;;;;;;9.30;8.50;;;9.00;94.80;;;8.67;81.56;99706.88;5030311;28;20453;-69
2023/01/08 09:34:43;;;;;;;8.05;7.35;;;9.00;94.90;;;8.72;81.36;99711.84;5031085;28;20407;-69
2023/01/08 09:37:12;;;;;;;6.73;6.20;;;9.00;94.80;;;8.80;80.99;99709.56;5030812;28;20505;-69
2023/01/08 09:39:40;;;;;;;14.45;13.15;;;9.10;94.90;;;8.88;81.49;99722.31;5030941;28;20403;-69
2023/01/08 09:42:14;;;;;;;9.57;8.77;;;9.10;94.80;;;8.91;80.79;99722.97;5030657;28;20429;-71
2023/01/08 09:44:47;;;;;;;7.38;6.68;;;9.20;94.60;;;8.94;81.12;99712.22;5030798;28;20410;-70
2023/01/08 09:47:26;;;;;;;6.75;6.15;;;9.20;94.60;;;8.97;81.27;99721.72;5030981;28;20410;-70
2023/01/08 09:50:01;;;;;;;6.43;5.93;;;9.30;94.80;;;9.06;80.86;99719.34;5031142;28;20842;-70
2023/01/08 09:52:32;;;;;;;5.75;5.25;;;9.40;94.60;;;9.12;81.44;99726.88;5030902;28;20410;-70
2023/01/08 09:55:01;;;;;;;5.93;5.07;;;9.40;94.90;;;9.20;81.41;99718.47;5030694;28;20407;-69
2023/01/08 09:57:29;;;;;;;5.83;5.33;;;9.50;94.90;;;9.20;81.39;99715.81;5030542;28;20403;-70
2023/01/08 09:59:58;;;;;;;5.63;5.03;;;9.50;94.70;;;9.18;81.31;99713.28;5030559;28;20422;-70
2023/01/08 10:02:28;;;;;;;5.45;4.95;;;9.50;94.50;;;9.18;80.81;99718.56;5030634;28;20422;-69
2023/01/08 10:05:01;;;;;;;4.80;4.40;;;9.50;94.40;;;9.24;80.33;99713.84;5030248;28;20767;-69
2023/01/08 10:07:31;;;;;;;4.60;4.20;;;9.50;94.20;;;9.23;80.10;99709.50;5030289;28;20402;-70
2023/01/08 10:10:00;;;;;;;4.97;4.57;;;9.50;94.10;;;9.12;79.93;99712.84;5030577;28;20566;-70
2023/01/08 10:12:32;;;;;;;5.25;4.75;;;9.40;93.90;;;9.05;80.43;99714.16;5030596;28;20403;-69
2023/01/08 10:15:04;;;;;;;5.38;4.97;;;9.40;94.20;;;8.99;80.84;99715.41;5030439;28;20396;-70
2023/01/08 10:17:39;;;;;;;4.90;4.50;;;9.40;94.20;;;9.02;80.79;99719.63;5030274;28;20407;-69
2023/01/08 10:20:13;;;;;;;5.43;4.93;;;9.40;94.30;;;9.01;80.47;99712.69;5030362;28;20756;-69
2023/01/08 10:22:43;;;;;;;5.47;4.97;;;9.40;94.70;;;9.05;80.53;99693.94;5025258;28;20434;-69
2023/01/08 10:25:16;;;;;;;8.27;7.47;;;9.40;94.20;;;9.03;80.31;99713.44;5026862;28;20884;-69
2023/01/08 10:27:50;;;;;;;5.40;4.90;;;9.40;94.20;;;9.00;80.75;99701.28;5029518;28;20953;-70
2023/01/08 10:30:22;;;;;;;5.25;4.75;;;9.30;94.20;;;9.06;80.60;99698.25;5030285;28;20462;-70
2023/01/08 10:32:54;;;;;;;4.60;4.20;;;9.40;94.20;;;9.08;80.95;99690.25;5030199;28;20403;-69
2023/01/08 10:43:55;;;;;;;3.78;3.33;;;15.50;69.30;;;14.10;61.65;99646.94;5120790;27;20444;-70
2023/01/08 10:46:25;;;;;;;4.75;4.25;;;13.70;74.20;;;12.39;68.20;99635.84;5034218;28;20414;-70
2023/01/08 10:48:58;;;;;;;4.03;3.63;;;12.40;80.10;;;11.22;72.31;99644.59;5025047;28;20419;-70
2023/01/08 10:51:28;;;;;;;3.38;3.08;;;11.40;85.40;;;10.37;76.08;99649.78;5031839;28;20415;-70
2023/01/08 10:54:01;;;;;;;4.47;4.07;;;10.70;89.20;;;9.94;77.99;99637.16;5019470;28;20413;-70
2023/01/08 10:56:40;;;;;;;4.00;3.70;;;10.40;90.90;;;9.57;79.69;99644.22;5005401;28;20414;-72